Piedmont, Missouri
Current Conditions -  °F | °C
As of 6:53 AM on Saturday 25 Oct 2014 (Local Time) from KPOF Reporting Station
Haze Haze  
Wind Chill: 55°   Ceiling: Unl
Heat Index: 55°   Visibility: 4mi
Dew Point: 53°   Wind: 3mph
Humidity: 93%   Direction: 210°SSW
Pressure: 30.04"   Gusts: NA
Location:  37.15°N, 90.7°W
Report Text: KPOF 251153Z AUTO 21003KT 4SM BR FEW050 13/12 A3004 RMK AO2 SLP171 T01280117 10133 20111 51004
Loading
Personal Weather Stations






























Interactive Weather Map
Tropical Storm Tracking
New forecast layout! Learn more

10-Day Weather Forecast

Advertisements
Track Severe Weather on mobile